createdAt,value
2023-05-11T00:01:07.457Z,2.00
2023-05-11T00:06:08.974Z,1.75
2023-05-11T00:11:10.555Z,3.47
2023-05-11T00:16:12.192Z,2.63
2023-05-11T00:21:13.790Z,6.93
2023-05-11T00:26:15.508Z,2.22
2023-05-11T00:31:18.979Z,2.40
2023-05-11T00:36:21.067Z,3.33
2023-05-11T00:41:22.652Z,1.90
2023-05-11T00:46:24.354Z,3.97
2023-05-11T00:51:25.958Z,3.65
2023-05-11T00:56:27.637Z,3.47
2023-05-11T01:01:29.149Z,6.57
2023-05-11T01:06:55.512Z,4.75
2023-05-11T01:12:07.765Z,5.03
2023-05-11T01:17:18.245Z,6.18
2023-05-11T01:22:38.304Z,8.93
2023-05-11T01:28:17.390Z,9.18
2023-05-11T01:33:26.168Z,5.88
2023-05-11T01:38:32.756Z,6.93
2023-05-11T01:48:40.963Z,8.07
2023-05-11T01:53:44.853Z,5.32
2023-05-11T01:58:46.914Z,8.75
2023-05-11T02:03:49.939Z,8.38
2023-05-11T02:08:53.327Z,9.52
2023-05-11T02:13:58.148Z,11.57
2023-05-11T02:18:59.972Z,10.73
2023-05-11T02:24:04.953Z,10.55
2023-05-11T02:29:06.757Z,10.98
2023-05-11T02:34:35.757Z,10.50
2023-05-11T02:39:40.285Z,10.70
2023-05-11T02:44:50.784Z,6.70
2023-05-11T02:49:55.742Z,3.95
2023-05-11T02:55:01.195Z,5.57
2023-05-11T03:00:03.169Z,5.53
2023-05-11T03:05:05.580Z,5.32
2023-05-11T03:10:08.132Z,6.50
2023-05-11T03:15:15.821Z,6.28
2023-05-11T03:20:22.552Z,5.97
2023-05-11T03:25:24.912Z,6.75
2023-05-11T03:30:29.064Z,5.97
2023-05-11T03:35:34.878Z,10.55
2023-05-11T03:40:39.119Z,7.82
2023-05-11T03:45:43.580Z,7.38
2023-05-11T03:50:46.922Z,9.25
2023-05-11T03:55:49.975Z,9.95
2023-05-11T04:00:51.930Z,11.52
2023-05-11T04:05:53.523Z,7.55
2023-05-11T04:10:55.064Z,7.03
2023-05-11T04:15:56.578Z,8.98
2023-05-11T04:20:58.220Z,9.07
2023-05-11T04:26:01.206Z,8.70
2023-05-11T04:31:02.824Z,9.05
2023-05-11T04:36:05.253Z,11.25
2023-05-11T04:41:08.207Z,10.63
2023-05-11T04:46:10.847Z,15.70
2023-05-11T04:51:12.766Z,21.20
2023-05-11T04:56:18.386Z,16.83
2023-05-11T05:01:20.048Z,11.63
2023-05-11T05:06:21.863Z,14.13
2023-05-11T05:11:23.466Z,8.60
2023-05-11T05:16:25.645Z,9.25
2023-05-11T05:21:27.560Z,10.90
2023-05-11T05:26:30.750Z,11.57
2023-05-11T05:31:33.212Z,9.02
2023-05-11T05:36:37.594Z,12.32
2023-05-11T05:41:39.318Z,17.08
2023-05-11T05:46:43.635Z,17.00
2023-05-11T05:51:45.446Z,18.50
2023-05-11T05:56:47.663Z,16.77
2023-05-11T06:01:51.064Z,13.93
2023-05-11T06:06:54.119Z,14.70
2023-05-11T06:11:55.878Z,18.13
2023-05-11T06:16:59.327Z,18.55
2023-05-11T06:22:05.844Z,16.98
2023-05-11T06:27:09.846Z,16.23
2023-05-11T06:32:11.709Z,20.77
2023-05-11T06:37:13.672Z,21.17
2023-05-11T06:42:15.396Z,16.88
2023-05-11T06:47:17.045Z,15.95
2023-05-11T06:52:18.892Z,17.55
2023-05-11T06:57:20.500Z,16.50
2023-05-11T07:02:22.020Z,17.85
2023-05-11T07:07:23.883Z,16.52
2023-05-11T07:12:25.520Z,18.95
2023-05-11T07:17:27.127Z,17.02
2023-05-11T07:22:28.648Z,19.13
2023-05-11T07:27:30.151Z,15.85
2023-05-11T07:32:32.417Z,15.45
2023-05-11T07:37:33.946Z,15.68
2023-05-11T07:42:35.497Z,16.33
2023-05-11T07:47:37.215Z,16.63
2023-05-11T07:52:38.899Z,17.15
2023-05-11T07:57:40.506Z,12.57
2023-05-11T08:02:42.229Z,14.48
2023-05-11T08:07:43.901Z,15.55
2023-05-11T08:12:45.504Z,15.32
2023-05-11T08:17:47.024Z,10.05
2023-05-11T08:22:48.601Z,7.93
2023-05-11T08:27:50.286Z,10.07
2023-05-11T08:32:58.668Z,10.02
2023-05-11T08:38:00.967Z,10.38
2023-05-11T08:43:04.878Z,12.43
2023-05-11T08:48:06.844Z,13.05
2023-05-11T08:53:08.629Z,16.20
2023-05-11T08:58:10.880Z,12.38
2023-05-11T09:03:13.039Z,11.25
2023-05-11T09:08:17.976Z,10.10
2023-05-11T09:13:20.039Z,9.63
2023-05-11T09:18:21.642Z,9.90
2023-05-11T09:23:26.487Z,12.20
2023-05-11T09:28:35.521Z,14.73
2023-05-11T09:33:37.652Z,14.73
2023-05-11T09:38:39.346Z,15.77
2023-05-11T09:43:41.035Z,12.85
2023-05-11T09:48:42.562Z,14.60
2023-05-11T09:53:45.461Z,12.07
2023-05-11T09:58:50.287Z,12.32
2023-05-11T10:03:54.006Z,11.63
2023-05-11T10:09:08.672Z,10.98
2023-05-11T10:14:12.657Z,9.90
2023-05-11T10:19:14.962Z,9.80
2023-05-11T10:24:18.956Z,11.85
2023-05-11T10:29:22.416Z,12.15
2023-05-11T10:34:24.589Z,8.48
2023-05-11T10:39:26.485Z,8.88
2023-05-11T10:44:27.935Z,9.23
2023-05-11T10:49:38.552Z,9.55
2023-05-11T10:54:54.499Z,9.27
2023-05-11T10:59:55.945Z,7.18
2023-05-11T11:04:57.557Z,9.82
2023-05-11T11:10:02.014Z,10.95
2023-05-11T11:15:07.477Z,14.57
2023-05-11T11:20:09.513Z,11.95
2023-05-11T11:25:12.218Z,9.57
2023-05-11T11:30:17.544Z,10.85
2023-05-11T11:35:40.922Z,9.07
2023-05-11T11:46:02.019Z,15.98
2023-05-11T11:51:08.969Z,12.57
2023-05-11T11:56:16.429Z,10.38
2023-05-11T12:01:20.517Z,13.05
2023-05-11T12:06:26.696Z,10.43
2023-05-11T12:11:29.959Z,12.35
2023-05-11T12:16:31.610Z,10.55
2023-05-11T12:21:33.275Z,11.73
2023-05-11T12:26:35.166Z,13.73
2023-05-11T12:31:42.444Z,13.23
2023-05-11T12:36:45.892Z,9.15
2023-05-11T12:41:49.147Z,8.65
2023-05-11T12:46:51.153Z,9.45
2023-05-11T12:52:02.045Z,12.73
2023-05-11T12:57:04.547Z,10.40
2023-05-11T13:02:07.288Z,10.10
2023-05-11T13:07:09.998Z,11.82
2023-05-11T13:12:17.985Z,11.63
2023-05-11T13:17:37.301Z,11.20
2023-05-11T13:22:39.022Z,10.88
2023-05-11T13:27:40.544Z,11.30
2023-05-11T13:32:42.082Z,10.10
2023-05-11T13:37:43.803Z,11.80
2023-05-11T13:42:45.311Z,12.50
2023-05-11T13:47:46.891Z,8.57
2023-05-11T13:52:48.493Z,13.27
2023-05-11T13:57:51.040Z,12.65
2023-05-11T14:02:52.865Z,14.65
2023-05-11T14:07:54.540Z,11.00
2023-05-11T14:12:56.103Z,10.25
2023-05-11T14:17:57.972Z,11.23
2023-05-11T14:22:59.588Z,15.50
2023-05-11T14:28:01.197Z,12.05
2023-05-11T14:33:02.755Z,11.73
2023-05-11T14:38:04.294Z,10.57
2023-05-11T14:43:05.895Z,11.70
2023-05-11T14:48:07.700Z,12.13
2023-05-11T14:53:09.635Z,15.65
2023-05-11T14:58:11.206Z,13.70
2023-05-11T15:03:12.821Z,11.30
2023-05-11T15:08:28.419Z,14.75
2023-05-11T15:13:31.465Z,11.07
2023-05-11T15:18:33.087Z,13.55
2023-05-11T15:23:34.658Z,11.30
2023-05-11T15:28:36.243Z,14.60
2023-05-11T15:33:37.842Z,15.27
2023-05-11T15:38:40.344Z,20.17
2023-05-11T15:43:41.898Z,18.42
2023-05-11T15:48:43.419Z,22.50
2023-05-11T15:53:45.665Z,24.20
2023-05-11T15:58:47.203Z,20.08
2023-05-11T16:03:48.730Z,19.70
2023-05-11T16:08:50.280Z,24.00
2023-05-11T16:13:51.925Z,18.25
2023-05-11T16:18:53.574Z,20.02
2023-05-11T16:23:55.150Z,23.10
2023-05-11T16:28:56.805Z,24.52
2023-05-11T16:33:58.407Z,23.88
2023-05-11T16:39:00.172Z,25.95
2023-05-11T16:44:01.726Z,26.55
2023-05-11T16:49:03.262Z,29.90
2023-05-11T16:54:04.791Z,30.92
2023-05-11T16:59:06.558Z,36.15
2023-05-11T17:04:08.158Z,33.38
2023-05-11T17:09:09.703Z,36.58
2023-05-11T17:14:11.254Z,34.47
2023-05-11T17:19:12.907Z,40.80
2023-05-11T17:24:14.709Z,44.15
2023-05-11T17:29:16.729Z,42.40
2023-05-11T17:34:19.089Z,44.95
2023-05-11T17:39:21.217Z,37.88
2023-05-11T17:44:22.765Z,48.00
2023-05-11T17:49:24.332Z,45.10
2023-05-11T17:54:25.912Z,45.53
2023-05-11T17:59:27.439Z,44.55
2023-05-11T18:04:29.636Z,43.15
2023-05-11T18:09:31.193Z,45.45
2023-05-11T18:14:32.917Z,43.75
2023-05-11T18:19:34.460Z,44.60
2023-05-11T18:24:35.996Z,42.97
2023-05-11T18:29:37.554Z,40.53
2023-05-11T18:34:39.143Z,39.03
2023-05-11T18:39:40.772Z,38.97
2023-05-11T18:44:42.306Z,45.72
2023-05-11T18:49:47.680Z,41.15
2023-05-11T18:54:50.520Z,36.05
2023-05-11T18:59:52.555Z,33.85
2023-05-11T19:04:54.058Z,39.63
2023-05-11T19:09:56.025Z,38.30
2023-05-11T19:14:57.554Z,28.15
2023-05-11T19:19:59.100Z,26.77
2023-05-11T19:25:00.881Z,29.13
2023-05-11T19:30:02.500Z,24.15
2023-05-11T19:35:05.143Z,27.27
2023-05-11T19:40:42.959Z,27.30
2023-05-11T19:45:29.086Z,27.52
2023-05-11T19:50:30.668Z,25.50
2023-05-11T19:55:32.244Z,30.33
2023-05-11T20:00:33.897Z,28.90
2023-05-11T20:05:35.622Z,29.70
2023-05-11T20:10:37.226Z,29.15
2023-05-11T20:15:38.766Z,36.83
2023-05-11T20:20:40.282Z,33.53
2023-05-11T20:25:41.916Z,29.60
2023-05-11T20:30:45.728Z,34.03
2023-05-11T20:35:47.318Z,31.23
2023-05-11T20:40:49.047Z,48.55
2023-05-11T20:45:50.618Z,56.70
2023-05-11T20:50:52.180Z,53.60
2023-05-11T20:55:53.791Z,53.50
2023-05-11T21:00:55.344Z,59.15
2023-05-11T21:05:56.933Z,65.47
2023-05-11T21:10:58.683Z,66.38
2023-05-11T21:16:00.195Z,68.03
2023-05-11T21:21:02.210Z,71.88
2023-05-11T21:26:03.776Z,64.78
2023-05-11T21:31:05.437Z,70.18
2023-05-11T21:36:07.292Z,73.00
2023-05-11T21:41:08.849Z,72.32
2023-05-11T21:46:10.475Z,74.38
2023-05-11T21:51:12.034Z,72.05
2023-05-11T21:56:13.584Z,74.57
2023-05-11T22:01:15.253Z,65.72
2023-05-11T22:06:16.868Z,68.28
2023-05-11T22:11:18.410Z,67.43
2023-05-11T22:16:20.135Z,72.82
2023-05-11T22:21:21.763Z,63.10
2023-05-11T22:26:23.313Z,58.97
2023-05-11T22:31:24.949Z,65.72
2023-05-11T22:36:26.506Z,61.58
2023-05-11T22:41:28.020Z,65.13
2023-05-11T22:46:29.709Z,59.40
2023-05-11T22:51:31.342Z,59.17
2023-05-11T22:56:32.885Z,69.35
2023-05-11T23:01:34.490Z,67.55
2023-05-11T23:06:36.231Z,67.30
2023-05-11T23:11:37.730Z,66.78
2023-05-11T23:16:39.348Z,70.88
2023-05-11T23:21:40.849Z,65.80
2023-05-11T23:26:46.132Z,71.38
2023-05-11T23:31:47.728Z,66.53
2023-05-11T23:36:49.331Z,68.40
2023-05-11T23:41:50.892Z,64.28
2023-05-11T23:46:52.478Z,68.32
2023-05-11T23:51:54.333Z,59.38
2023-05-11T23:56:55.850Z,72.95
